sensor_id;sensor_type;location;lat;lon;timestamp;P1;durP1;ratioP1;P2;durP2;ratioP2
36833;SDS011;48003;52.084;5.224;2024-01-11T00:01:56;19.41;;;9.9;;
36833;SDS011;48003;52.084;5.224;2024-01-11T00:03:32;18.0;;;9.71;;
36833;SDS011;48003;52.084;5.224;2024-01-11T00:05:08;19.8;;;9.5;;
36833;SDS011;48003;52.084;5.224;2024-01-11T00:08:21;18.3;;;9.5;;
36833;SDS011;48003;52.084;5.224;2024-01-11T00:09:57;16.8;;;9.21;;
36833;SDS011;48003;52.084;5.224;2024-01-11T00:11:33;17.11;;;9.1;;
36833;SDS011;48003;52.084;5.224;2024-01-11T00:13:09;20.0;;;8.9;;
36833;SDS011;48003;52.084;5.224;2024-01-11T00:16:21;18.41;;;9.4;;
36833;SDS011;48003;52.084;5.224;2024-01-11T00:17:58;17.41;;;9.0;;
36833;SDS011;48003;52.084;5.224;2024-01-11T00:19:34;16.0;;;8.81;;
36833;SDS011;48003;52.084;5.224;2024-01-11T00:22:46;15.2;;;8.5;;
36833;SDS011;48003;52.084;5.224;2024-01-11T00:24:22;20.8;;;9.9;;
36833;SDS011;48003;52.084;5.224;2024-01-11T00:25:58;18.41;;;9.21;;
36833;SDS011;48003;52.084;5.224;2024-01-11T00:29:10;19.3;;;9.5;;
36833;SDS011;48003;52.084;5.224;2024-01-11T00:30:46;18.61;;;9.5;;
36833;SDS011;48003;52.084;5.224;2024-01-11T00:32:22;20.11;;;9.6;;
36833;SDS011;48003;52.084;5.224;2024-01-11T00:35:35;19.3;;;9.81;;
36833;SDS011;48003;52.084;5.224;2024-01-11T00:37:11;18.8;;;9.31;;
36833;SDS011;48003;52.084;5.224;2024-01-11T00:38:47;20.5;;;9.71;;
36833;SDS011;48003;52.084;5.224;2024-01-11T00:40:23;17.8;;;9.31;;
36833;SDS011;48003;52.084;5.224;2024-01-11T00:43:35;17.91;;;9.4;;
36833;SDS011;48003;52.084;5.224;2024-01-11T00:45:11;18.7;;;10.0;;
36833;SDS011;48003;52.084;5.224;2024-01-11T00:46:47;21.1;;;10.0;;
36833;SDS011;48003;52.084;5.224;2024-01-11T00:49:59;21.2;;;9.9;;
36833;SDS011;48003;52.084;5.224;2024-01-11T00:51:35;19.7;;;10.3;;
36833;SDS011;48003;52.084;5.224;2024-01-11T00:53:12;18.5;;;9.5;;
36833;SDS011;48003;52.084;5.224;2024-01-11T00:56:24;20.11;;;10.3;;
36833;SDS011;48003;52.084;5.224;2024-01-11T00:58:00;18.0;;;10.1;;
36833;SDS011;48003;52.084;5.224;2024-01-11T00:59:36;18.8;;;9.9;;
36833;SDS011;48003;52.084;5.224;2024-01-11T01:02:48;18.0;;;9.71;;
36833;SDS011;48003;52.084;5.224;2024-01-11T01:04:24;17.91;;;10.5;;
36833;SDS011;48003;52.084;5.224;2024-01-11T01:06:00;19.0;;;9.71;;
36833;SDS011;48003;52.084;5.224;2024-01-11T01:07:36;20.41;;;9.71;;
36833;SDS011;48003;52.084;5.224;2024-01-11T01:10:49;18.8;;;9.6;;
36833;SDS011;48003;52.084;5.224;2024-01-11T01:12:25;20.3;;;10.1;;
36833;SDS011;48003;52.084;5.224;2024-01-11T01:14:01;20.3;;;9.71;;
36833;SDS011;48003;52.084;5.224;2024-01-11T01:17:13;20.9;;;10.1;;
36833;SDS011;48003;52.084;5.224;2024-01-11T01:18:49;21.1;;;10.6;;
36833;SDS011;48003;52.084;5.224;2024-01-11T01:20:25;19.5;;;10.5;;
36833;SDS011;48003;52.084;5.224;2024-01-11T01:23:37;20.7;;;10.21;;
36833;SDS011;48003;52.084;5.224;2024-01-11T01:25:14;19.0;;;10.0;;
36833;SDS011;48003;52.084;5.224;2024-01-11T01:26:50;19.7;;;10.3;;
36833;SDS011;48003;52.084;5.224;2024-01-11T01:28:26;19.7;;;10.4;;
36833;SDS011;48003;52.084;5.224;2024-01-11T01:31:39;20.7;;;10.1;;
36833;SDS011;48003;52.084;5.224;2024-01-11T01:33:15;20.41;;;10.3;;
36833;SDS011;48003;52.084;5.224;2024-01-11T01:34:51;20.2;;;10.7;;
36833;SDS011;48003;52.084;5.224;2024-01-11T01:38:03;19.61;;;10.5;;
36833;SDS011;48003;52.084;5.224;2024-01-11T01:39:39;20.3;;;10.1;;
36833;SDS011;48003;52.084;5.224;2024-01-11T01:41:15;22.7;;;11.2;;
36833;SDS011;48003;52.084;5.224;2024-01-11T01:44:34;20.11;;;10.21;;
36833;SDS011;48003;52.084;5.224;2024-01-11T01:46:10;18.5;;;10.0;;
36833;SDS011;48003;52.084;5.224;2024-01-11T01:47:47;19.91;;;10.6;;
36833;SDS011;48003;52.084;5.224;2024-01-11T01:49:23;21.4;;;10.8;;
36833;SDS011;48003;52.084;5.224;2024-01-11T01:52:37;22.2;;;10.7;;
36833;SDS011;48003;52.084;5.224;2024-01-11T01:54:18;22.4;;;11.4;;
36833;SDS011;48003;52.084;5.224;2024-01-11T01:55:56;22.7;;;10.6;;
36833;SDS011;48003;52.084;5.224;2024-01-11T01:59:10;20.7;;;10.8;;
36833;SDS011;48003;52.084;5.224;2024-01-11T02:00:49;23.2;;;10.6;;
36833;SDS011;48003;52.084;5.224;2024-01-11T02:02:27;20.0;;;10.4;;
36833;SDS011;48003;52.084;5.224;2024-01-11T02:04:04;22.3;;;10.7;;
36833;SDS011;48003;52.084;5.224;2024-01-11T02:07:16;20.41;;;11.2;;
36833;SDS011;48003;52.084;5.224;2024-01-11T02:08:53;21.5;;;11.4;;
36833;SDS011;48003;52.084;5.224;2024-01-11T02:10:31;20.0;;;10.9;;
36833;SDS011;48003;52.084;5.224;2024-01-11T02:13:45;22.2;;;11.5;;
36833;SDS011;48003;52.084;5.224;2024-01-11T02:15:21;21.0;;;10.8;;
36833;SDS011;48003;52.084;5.224;2024-01-11T02:16:57;21.8;;;11.4;;
36833;SDS011;48003;52.084;5.224;2024-01-11T02:20:11;23.9;;;12.1;;
36833;SDS011;48003;52.084;5.224;2024-01-11T02:21:48;21.6;;;10.6;;
36833;SDS011;48003;52.084;5.224;2024-01-11T02:23:29;25.2;;;11.9;;
36833;SDS011;48003;52.084;5.224;2024-01-11T02:25:06;20.6;;;11.1;;
36833;SDS011;48003;52.084;5.224;2024-01-11T02:28:34;21.0;;;11.2;;
36833;SDS011;48003;52.084;5.224;2024-01-11T02:30:11;19.7;;;11.2;;
36833;SDS011;48003;52.084;5.224;2024-01-11T02:31:47;23.4;;;11.8;;
36833;SDS011;48003;52.084;5.224;2024-01-11T02:33:23;21.3;;;11.8;;
36833;SDS011;48003;52.084;5.224;2024-01-11T02:36:38;23.2;;;11.3;;
36833;SDS011;48003;52.084;5.224;2024-01-11T02:38:15;22.8;;;11.8;;
36833;SDS011;48003;52.084;5.224;2024-01-11T02:39:52;24.5;;;11.5;;
36833;SDS011;48003;52.084;5.224;2024-01-11T02:43:07;24.0;;;12.2;;
36833;SDS011;48003;52.084;5.224;2024-01-11T02:44:44;25.4;;;12.4;;
36833;SDS011;48003;52.084;5.224;2024-01-11T02:46:20;26.3;;;12.0;;
36833;SDS011;48003;52.084;5.224;2024-01-11T02:47:56;24.0;;;12.3;;
36833;SDS011;48003;52.084;5.224;2024-01-11T02:51:08;24.0;;;12.1;;
36833;SDS011;48003;52.084;5.224;2024-01-11T02:52:44;26.4;;;12.5;;
36833;SDS011;48003;52.084;5.224;2024-01-11T02:54:20;23.4;;;12.4;;
36833;SDS011;48003;52.084;5.224;2024-01-11T02:57:33;26.4;;;12.8;;
36833;SDS011;48003;52.084;5.224;2024-01-11T02:59:12;25.6;;;12.5;;
36833;SDS011;48003;52.084;5.224;2024-01-11T03:00:48;24.9;;;13.0;;
36833;SDS011;48003;52.084;5.224;2024-01-11T03:04:00;28.1;;;13.6;;
36833;SDS011;48003;52.084;5.224;2024-01-11T03:05:36;28.7;;;13.8;;
36833;SDS011;48003;52.084;5.224;2024-01-11T03:07:12;27.6;;;13.8;;
36833;SDS011;48003;52.084;5.224;2024-01-11T03:10:24;27.1;;;13.5;;
36833;SDS011;48003;52.084;5.224;2024-01-11T03:12:00;24.5;;;12.8;;
36833;SDS011;48003;52.084;5.224;2024-01-11T03:13:36;27.5;;;13.4;;
36833;SDS011;48003;52.084;5.224;2024-01-11T03:15:12;26.1;;;13.0;;
36833;SDS011;48003;52.084;5.224;2024-01-11T03:18:25;23.7;;;12.6;;
36833;SDS011;48003;52.084;5.224;2024-01-11T03:20:01;24.8;;;13.4;;
36833;SDS011;48003;52.084;5.224;2024-01-11T03:21:40;28.9;;;13.9;;
36833;SDS011;48003;52.084;5.224;2024-01-11T03:24:54;27.0;;;13.8;;
36833;SDS011;48003;52.084;5.224;2024-01-11T03:26:30;25.3;;;13.3;;
36833;SDS011;48003;52.084;5.224;2024-01-11T03:28:06;24.1;;;13.3;;
36833;SDS011;48003;52.084;5.224;2024-01-11T03:31:19;27.7;;;13.6;;
36833;SDS011;48003;52.084;5.224;2024-01-11T03:32:54;25.7;;;14.1;;
36833;SDS011;48003;52.084;5.224;2024-01-11T03:34:31;28.2;;;14.2;;
36833;SDS011;48003;52.084;5.224;2024-01-11T03:36:07;27.6;;;14.7;;
36833;SDS011;48003;52.084;5.224;2024-01-11T03:39:20;27.3;;;14.5;;
36833;SDS011;48003;52.084;5.224;2024-01-11T03:40:56;29.1;;;15.4;;
36833;SDS011;48003;52.084;5.224;2024-01-11T03:42:32;27.8;;;15.1;;
36833;SDS011;48003;52.084;5.224;2024-01-11T03:45:44;33.71;;;16.0;;
36833;SDS011;48003;52.084;5.224;2024-01-11T03:47:20;30.0;;;15.8;;
36833;SDS011;48003;52.084;5.224;2024-01-11T03:48:56;31.9;;;15.6;;
36833;SDS011;48003;52.084;5.224;2024-01-11T03:52:09;30.7;;;15.5;;
36833;SDS011;48003;52.084;5.224;2024-01-11T03:53:45;30.7;;;15.5;;
36833;SDS011;48003;52.084;5.224;2024-01-11T03:55:21;29.8;;;15.8;;
36833;SDS011;48003;52.084;5.224;2024-01-11T03:58:35;31.4;;;16.9;;
36833;SDS011;48003;52.084;5.224;2024-01-11T04:00:11;30.2;;;15.5;;
36833;SDS011;48003;52.084;5.224;2024-01-11T04:01:48;31.9;;;16.11;;
36833;SDS011;48003;52.084;5.224;2024-01-11T04:03:24;33.5;;;16.4;;
36833;SDS011;48003;52.084;5.224;2024-01-11T04:06:36;30.3;;;16.9;;
36833;SDS011;48003;52.084;5.224;2024-01-11T04:08:12;31.5;;;16.61;;
36833;SDS011;48003;52.084;5.224;2024-01-11T04:09:48;32.1;;;15.9;;
36833;SDS011;48003;52.084;5.224;2024-01-11T04:13:03;32.71;;;16.61;;
36833;SDS011;48003;52.084;5.224;2024-01-11T04:14:39;34.1;;;16.4;;
36833;SDS011;48003;52.084;5.224;2024-01-11T04:16:15;32.1;;;16.8;;
36833;SDS011;48003;52.084;5.224;2024-01-11T04:19:27;32.6;;;16.0;;
36833;SDS011;48003;52.084;5.224;2024-01-11T04:21:03;33.21;;;17.7;;
36833;SDS011;48003;52.084;5.224;2024-01-11T04:22:39;35.71;;;18.41;;
36833;SDS011;48003;52.084;5.224;2024-01-11T04:24:15;36.31;;;18.2;;
36833;SDS011;48003;52.084;5.224;2024-01-11T04:27:28;36.1;;;18.7;;
36833;SDS011;48003;52.084;5.224;2024-01-11T04:29:04;35.9;;;18.61;;
36833;SDS011;48003;52.084;5.224;2024-01-11T04:30:41;36.9;;;19.7;;
36833;SDS011;48003;52.084;5.224;2024-01-11T04:33:53;36.31;;;18.91;;
36833;SDS011;48003;52.084;5.224;2024-01-11T04:35:29;38.6;;;19.11;;
36833;SDS011;48003;52.084;5.224;2024-01-11T04:37:05;36.31;;;19.3;;
36833;SDS011;48003;52.084;5.224;2024-01-11T04:40:18;36.0;;;19.91;;
36833;SDS011;48003;52.084;5.224;2024-01-11T04:41:54;37.81;;;20.41;;
36833;SDS011;48003;52.084;5.224;2024-01-11T04:43:30;37.81;;;20.41;;
36833;SDS011;48003;52.084;5.224;2024-01-11T04:45:07;37.1;;;19.41;;
36833;SDS011;48003;52.084;5.224;2024-01-11T04:48:20;36.4;;;20.0;;
36833;SDS011;48003;52.084;5.224;2024-01-11T04:49:56;36.6;;;19.8;;
36833;SDS011;48003;52.084;5.224;2024-01-11T04:51:32;41.9;;;21.1;;
36833;SDS011;48003;52.084;5.224;2024-01-11T04:54:44;35.31;;;19.8;;
36833;SDS011;48003;52.084;5.224;2024-01-11T04:56:20;40.31;;;19.41;;
36833;SDS011;48003;52.084;5.224;2024-01-11T04:57:56;39.0;;;21.4;;
36833;SDS011;48003;52.084;5.224;2024-01-11T05:01:11;38.9;;;20.41;;
36833;SDS011;48003;52.084;5.224;2024-01-11T05:02:47;41.0;;;21.2;;
36833;SDS011;48003;52.084;5.224;2024-01-11T05:04:23;38.0;;;20.7;;
36833;SDS011;48003;52.084;5.224;2024-01-11T05:07:36;39.9;;;21.7;;
36833;SDS011;48003;52.084;5.224;2024-01-11T05:09:12;39.1;;;21.2;;
36833;SDS011;48003;52.084;5.224;2024-01-11T05:10:48;41.8;;;21.6;;
36833;SDS011;48003;52.084;5.224;2024-01-11T05:12:24;41.3;;;21.4;;
36833;SDS011;48003;52.084;5.224;2024-01-11T05:15:35;41.6;;;21.4;;
36833;SDS011;48003;52.084;5.224;2024-01-11T05:17:11;41.3;;;21.7;;
36833;SDS011;48003;52.084;5.224;2024-01-11T05:18:48;43.6;;;21.4;;
36833;SDS011;48003;52.084;5.224;2024-01-11T05:22:01;39.4;;;21.2;;
36833;SDS011;48003;52.084;5.224;2024-01-11T05:23:39;45.4;;;22.9;;
36833;SDS011;48003;52.084;5.224;2024-01-11T05:25:16;41.1;;;22.1;;
36833;SDS011;48003;52.084;5.224;2024-01-11T05:28:28;41.5;;;21.7;;
36833;SDS011;48003;52.084;5.224;2024-01-11T05:30:04;44.2;;;22.9;;
36833;SDS011;48003;52.084;5.224;2024-01-11T05:31:41;43.9;;;23.0;;
36833;SDS011;48003;52.084;5.224;2024-01-11T05:33:17;42.1;;;22.5;;
36833;SDS011;48003;52.084;5.224;2024-01-11T05:36:29;42.2;;;22.5;;
36833;SDS011;48003;52.084;5.224;2024-01-11T05:38:05;37.1;;;21.3;;
36833;SDS011;48003;52.084;5.224;2024-01-11T05:39:41;43.2;;;23.3;;
36833;SDS011;48003;52.084;5.224;2024-01-11T05:42:53;39.81;;;22.0;;
36833;SDS011;48003;52.084;5.224;2024-01-11T05:44:29;40.5;;;23.2;;
36833;SDS011;48003;52.084;5.224;2024-01-11T05:46:05;43.7;;;22.8;;
36833;SDS011;48003;52.084;5.224;2024-01-11T05:49:20;41.5;;;22.9;;
36833;SDS011;48003;52.084;5.224;2024-01-11T05:52:32;39.6;;;23.0;;
36833;SDS011;48003;52.084;5.224;2024-01-11T05:54:08;40.9;;;22.0;;
36833;SDS011;48003;52.084;5.224;2024-01-11T05:57:20;45.2;;;23.2;;
36833;SDS011;48003;52.084;5.224;2024-01-11T05:58:56;46.0;;;23.0;;
36833;SDS011;48003;52.084;5.224;2024-01-11T06:00:33;43.6;;;23.4;;
36833;SDS011;48003;52.084;5.224;2024-01-11T06:03:45;44.1;;;23.8;;
36833;SDS011;48003;52.084;5.224;2024-01-11T06:05:21;42.9;;;24.0;;
36833;SDS011;48003;52.084;5.224;2024-01-11T06:06:57;43.0;;;22.9;;
36833;SDS011;48003;52.084;5.224;2024-01-11T06:10:09;43.9;;;23.0;;
36833;SDS011;48003;52.084;5.224;2024-01-11T06:11:46;42.6;;;22.0;;
36833;SDS011;48003;52.084;5.224;2024-01-11T06:13:21;42.5;;;22.3;;
36833;SDS011;48003;52.084;5.224;2024-01-11T06:16:34;43.7;;;23.0;;
36833;SDS011;48003;52.084;5.224;2024-01-11T06:18:10;42.9;;;23.7;;
36833;SDS011;48003;52.084;5.224;2024-01-11T06:19:46;44.4;;;23.6;;
36833;SDS011;48003;52.084;5.224;2024-01-11T06:21:22;45.5;;;23.8;;
36833;SDS011;48003;52.084;5.224;2024-01-11T06:24:34;44.7;;;23.0;;
36833;SDS011;48003;52.084;5.224;2024-01-11T06:26:10;42.8;;;23.3;;
36833;SDS011;48003;52.084;5.224;2024-01-11T06:27:46;43.2;;;22.8;;
36833;SDS011;48003;52.084;5.224;2024-01-11T06:30:59;44.5;;;22.7;;
36833;SDS011;48003;52.084;5.224;2024-01-11T06:32:35;44.7;;;24.1;;
36833;SDS011;48003;52.084;5.224;2024-01-11T06:34:11;43.0;;;22.9;;
36833;SDS011;48003;52.084;5.224;2024-01-11T06:37:23;47.3;;;24.0;;
36833;SDS011;48003;52.084;5.224;2024-01-11T06:38:59;42.2;;;23.3;;
36833;SDS011;48003;52.084;5.224;2024-01-11T06:40:35;45.5;;;23.4;;
36833;SDS011;48003;52.084;5.224;2024-01-11T06:43:47;41.2;;;22.9;;
36833;SDS011;48003;52.084;5.224;2024-01-11T06:45:24;46.4;;;24.4;;
36833;SDS011;48003;52.084;5.224;2024-01-11T06:46:59;43.8;;;23.6;;
36833;SDS011;48003;52.084;5.224;2024-01-11T06:48:36;45.0;;;23.7;;
36833;SDS011;48003;52.084;5.224;2024-01-11T06:51:48;47.2;;;24.2;;
36833;SDS011;48003;52.084;5.224;2024-01-11T06:53:24;45.8;;;24.1;;
36833;SDS011;48003;52.084;5.224;2024-01-11T06:55:00;46.8;;;23.9;;
36833;SDS011;48003;52.084;5.224;2024-01-11T06:58:12;44.1;;;24.3;;
36833;SDS011;48003;52.084;5.224;2024-01-11T06:59:48;44.1;;;23.8;;
36833;SDS011;48003;52.084;5.224;2024-01-11T07:01:24;46.1;;;24.0;;
36833;SDS011;48003;52.084;5.224;2024-01-11T07:04:37;46.0;;;24.5;;
36833;SDS011;48003;52.084;5.224;2024-01-11T07:06:13;48.5;;;23.6;;
36833;SDS011;48003;52.084;5.224;2024-01-11T07:07:49;43.0;;;24.3;;
36833;SDS011;48003;52.084;5.224;2024-01-11T07:11:01;47.0;;;24.8;;
36833;SDS011;48003;52.084;5.224;2024-01-11T07:12:38;45.7;;;24.1;;
36833;SDS011;48003;52.084;5.224;2024-01-11T07:14:15;49.7;;;25.6;;
36833;SDS011;48003;52.084;5.224;2024-01-11T07:15:51;47.2;;;24.6;;
36833;SDS011;48003;52.084;5.224;2024-01-11T07:19:06;49.5;;;25.3;;
36833;SDS011;48003;52.084;5.224;2024-01-11T07:20:42;44.9;;;24.8;;
36833;SDS011;48003;52.084;5.224;2024-01-11T07:22:18;46.2;;;25.4;;
36833;SDS011;48003;52.084;5.224;2024-01-11T07:25:31;49.8;;;26.4;;
36833;SDS011;48003;52.084;5.224;2024-01-11T07:27:07;48.0;;;25.5;;
36833;SDS011;48003;52.084;5.224;2024-01-11T07:28:43;51.4;;;25.7;;
36833;SDS011;48003;52.084;5.224;2024-01-11T07:31:55;48.0;;;25.5;;
36833;SDS011;48003;52.084;5.224;2024-01-11T07:33:31;47.6;;;25.4;;
36833;SDS011;48003;52.084;5.224;2024-01-11T07:35:07;49.6;;;25.7;;
36833;SDS011;48003;52.084;5.224;2024-01-11T07:36:44;53.4;;;26.6;;
36833;SDS011;48003;52.084;5.224;2024-01-11T07:39:56;48.7;;;25.9;;
36833;SDS011;48003;52.084;5.224;2024-01-11T07:41:32;48.7;;;25.7;;
36833;SDS011;48003;52.084;5.224;2024-01-11T07:43:09;52.3;;;25.4;;
36833;SDS011;48003;52.084;5.224;2024-01-11T07:46:21;48.3;;;25.3;;
36833;SDS011;48003;52.084;5.224;2024-01-11T07:47:57;45.8;;;24.4;;
36833;SDS011;48003;52.084;5.224;2024-01-11T07:49:33;47.4;;;24.8;;
36833;SDS011;48003;52.084;5.224;2024-01-11T07:52:45;49.0;;;25.5;;
36833;SDS011;48003;52.084;5.224;2024-01-11T07:54:21;51.0;;;24.8;;
36833;SDS011;48003;52.084;5.224;2024-01-11T07:55:57;50.3;;;25.8;;
36833;SDS011;48003;52.084;5.224;2024-01-11T07:57:34;49.6;;;25.6;;
36833;SDS011;48003;52.084;5.224;2024-01-11T08:00:47;48.9;;;25.1;;
36833;SDS011;48003;52.084;5.224;2024-01-11T08:02:27;50.0;;;25.5;;
36833;SDS011;48003;52.084;5.224;2024-01-11T08:04:03;49.9;;;24.8;;
36833;SDS011;48003;52.084;5.224;2024-01-11T08:07:16;48.2;;;24.4;;
36833;SDS011;48003;52.084;5.224;2024-01-11T08:08:52;48.6;;;25.1;;
36833;SDS011;48003;52.084;5.224;2024-01-11T08:10:28;46.2;;;24.3;;
36833;SDS011;48003;52.084;5.224;2024-01-11T08:13:41;46.6;;;25.1;;
36833;SDS011;48003;52.084;5.224;2024-01-11T08:15:17;48.4;;;25.7;;
36833;SDS011;48003;52.084;5.224;2024-01-11T08:16:54;52.8;;;25.7;;
36833;SDS011;48003;52.084;5.224;2024-01-11T08:18:30;48.2;;;25.6;;
36833;SDS011;48003;52.084;5.224;2024-01-11T08:21:43;45.8;;;25.2;;
36833;SDS011;48003;52.084;5.224;2024-01-11T08:23:19;51.2;;;25.7;;
36833;SDS011;48003;52.084;5.224;2024-01-11T08:24:55;49.0;;;26.0;;
36833;SDS011;48003;52.084;5.224;2024-01-11T08:28:07;49.5;;;26.1;;
36833;SDS011;48003;52.084;5.224;2024-01-11T08:29:43;49.8;;;25.6;;
36833;SDS011;48003;52.084;5.224;2024-01-11T08:31:19;50.9;;;26.8;;
36833;SDS011;48003;52.084;5.224;2024-01-11T08:34:31;48.7;;;25.5;;
36833;SDS011;48003;52.084;5.224;2024-01-11T08:36:08;51.0;;;25.5;;
36833;SDS011;48003;52.084;5.224;2024-01-11T08:37:44;53.6;;;26.1;;
36833;SDS011;48003;52.084;5.224;2024-01-11T08:40:56;49.7;;;25.6;;
36833;SDS011;48003;52.084;5.224;2024-01-11T08:42:32;51.0;;;26.7;;
36833;SDS011;48003;52.084;5.224;2024-01-11T08:44:09;45.9;;;24.8;;
36833;SDS011;48003;52.084;5.224;2024-01-11T08:45:45;46.1;;;25.2;;
36833;SDS011;48003;52.084;5.224;2024-01-11T08:49:00;48.0;;;25.6;;
36833;SDS011;48003;52.084;5.224;2024-01-11T08:50:37;46.7;;;25.8;;
36833;SDS011;48003;52.084;5.224;2024-01-11T08:52:13;49.3;;;24.9;;
36833;SDS011;48003;52.084;5.224;2024-01-11T08:55:26;48.7;;;25.1;;
36833;SDS011;48003;52.084;5.224;2024-01-11T08:57:02;51.3;;;26.2;;
36833;SDS011;48003;52.084;5.224;2024-01-11T08:58:39;49.9;;;26.2;;
36833;SDS011;48003;52.084;5.224;2024-01-11T09:01:51;49.1;;;26.2;;
36833;SDS011;48003;52.084;5.224;2024-01-11T09:03:27;51.1;;;26.8;;
36833;SDS011;48003;52.084;5.224;2024-01-11T09:05:03;51.5;;;26.3;;
36833;SDS011;48003;52.084;5.224;2024-01-11T09:06:40;48.3;;;26.0;;
36833;SDS011;48003;52.084;5.224;2024-01-11T09:09:52;49.1;;;26.0;;
36833;SDS011;48003;52.084;5.224;2024-01-11T09:11:29;49.6;;;26.4;;
36833;SDS011;48003;52.084;5.224;2024-01-11T09:13:05;49.2;;;25.5;;
36833;SDS011;48003;52.084;5.224;2024-01-11T09:16:17;50.4;;;26.7;;
36833;SDS011;48003;52.084;5.224;2024-01-11T09:17:53;50.7;;;26.4;;
36833;SDS011;48003;52.084;5.224;2024-01-11T09:22:41;51.9;;;26.7;;
36833;SDS011;48003;52.084;5.224;2024-01-11T09:24:17;51.1;;;26.8;;
36833;SDS011;48003;52.084;5.224;2024-01-11T09:25:53;50.8;;;26.2;;
36833;SDS011;48003;52.084;5.224;2024-01-11T09:29:05;53.8;;;26.5;;
36833;SDS011;48003;52.084;5.224;2024-01-11T09:30:42;51.4;;;26.8;;
36833;SDS011;48003;52.084;5.224;2024-01-11T09:32:18;49.0;;;25.4;;
36833;SDS011;48003;52.084;5.224;2024-01-11T09:33:54;51.7;;;26.5;;
36833;SDS011;48003;52.084;5.224;2024-01-11T09:37:06;48.2;;;26.2;;
36833;SDS011;48003;52.084;5.224;2024-01-11T09:38:42;46.6;;;25.8;;
36833;SDS011;48003;52.084;5.224;2024-01-11T09:40:18;50.8;;;25.1;;
36833;SDS011;48003;52.084;5.224;2024-01-11T09:43:35;48.8;;;24.4;;
36833;SDS011;48003;52.084;5.224;2024-01-11T09:45:12;45.3;;;23.9;;
36833;SDS011;48003;52.084;5.224;2024-01-11T09:46:49;43.3;;;23.1;;
36833;SDS011;48003;52.084;5.224;2024-01-11T09:48:26;48.8;;;25.2;;
36833;SDS011;48003;52.084;5.224;2024-01-11T09:51:40;42.4;;;23.7;;
36833;SDS011;48003;52.084;5.224;2024-01-11T09:53:20;46.8;;;24.0;;
36833;SDS011;48003;52.084;5.224;2024-01-11T09:54:58;40.21;;;21.0;;
36833;SDS011;48003;52.084;5.224;2024-01-11T09:58:10;40.21;;;21.9;;
36833;SDS011;48003;52.084;5.224;2024-01-11T09:59:47;42.9;;;21.7;;
36833;SDS011;48003;52.084;5.224;2024-01-11T10:01:27;39.4;;;21.1;;
36833;SDS011;48003;52.084;5.224;2024-01-11T10:04:41;41.1;;;21.0;;
36833;SDS011;48003;52.084;5.224;2024-01-11T10:06:17;42.1;;;21.9;;
36833;SDS011;48003;52.084;5.224;2024-01-11T10:07:54;42.6;;;21.6;;
36833;SDS011;48003;52.084;5.224;2024-01-11T10:09:31;43.6;;;21.9;;
36833;SDS011;48003;52.084;5.224;2024-01-11T10:12:43;41.8;;;21.5;;
36833;SDS011;48003;52.084;5.224;2024-01-11T10:14:19;46.1;;;22.2;;
36833;SDS011;48003;52.084;5.224;2024-01-11T10:16:04;41.4;;;21.2;;
36833;SDS011;48003;52.084;5.224;2024-01-11T10:17:44;42.8;;;21.5;;
36833;SDS011;48003;52.084;5.224;2024-01-11T10:20:57;45.3;;;21.4;;
36833;SDS011;48003;52.084;5.224;2024-01-11T10:22:33;44.6;;;21.4;;
36833;SDS011;48003;52.084;5.224;2024-01-11T10:24:09;43.8;;;20.7;;
36833;SDS011;48003;52.084;5.224;2024-01-11T10:27:23;43.6;;;21.4;;
36833;SDS011;48003;52.084;5.224;2024-01-11T10:29:05;45.1;;;21.2;;
36833;SDS011;48003;52.084;5.224;2024-01-11T10:30:44;45.0;;;20.6;;
36833;SDS011;48003;52.084;5.224;2024-01-11T10:32:21;41.8;;;20.6;;
36833;SDS011;48003;52.084;5.224;2024-01-11T10:35:33;44.4;;;21.2;;
36833;SDS011;48003;52.084;5.224;2024-01-11T10:37:11;42.4;;;20.9;;
36833;SDS011;48003;52.084;5.224;2024-01-11T10:38:49;40.81;;;20.2;;
36833;SDS011;48003;52.084;5.224;2024-01-11T10:42:05;47.9;;;21.6;;
36833;SDS011;48003;52.084;5.224;2024-01-11T10:43:41;44.5;;;20.8;;
36833;SDS011;48003;52.084;5.224;2024-01-11T10:45:19;48.0;;;21.2;;
36833;SDS011;48003;52.084;5.224;2024-01-11T10:48:32;42.9;;;20.7;;
36833;SDS011;48003;52.084;5.224;2024-01-11T10:50:13;42.4;;;21.1;;
36833;SDS011;48003;52.084;5.224;2024-01-11T10:51:53;41.9;;;20.2;;
36833;SDS011;48003;52.084;5.224;2024-01-11T10:53:36;42.0;;;20.2;;
36833;SDS011;48003;52.084;5.224;2024-01-11T10:56:54;40.5;;;19.8;;
36833;SDS011;48003;52.084;5.224;2024-01-11T10:58:34;40.5;;;20.41;;
36833;SDS011;48003;52.084;5.224;2024-01-11T11:00:11;46.8;;;20.7;;
36833;SDS011;48003;52.084;5.224;2024-01-11T11:01:48;42.1;;;20.41;;
36833;SDS011;48003;52.084;5.224;2024-01-11T11:05:02;41.5;;;20.11;;
36833;SDS011;48003;52.084;5.224;2024-01-11T11:06:40;46.1;;;20.7;;
36833;SDS011;48003;52.084;5.224;2024-01-11T11:08:18;40.81;;;19.61;;
36833;SDS011;48003;52.084;5.224;2024-01-11T11:11:33;42.4;;;20.6;;
36833;SDS011;48003;52.084;5.224;2024-01-11T11:13:13;41.8;;;20.2;;
36833;SDS011;48003;52.084;5.224;2024-01-11T11:14:50;40.5;;;19.2;;
36833;SDS011;48003;52.084;5.224;2024-01-11T11:16:28;42.1;;;20.0;;
36833;SDS011;48003;52.084;5.224;2024-01-11T11:19:41;38.1;;;19.5;;
36833;SDS011;48003;52.084;5.224;2024-01-11T11:21:18;42.4;;;18.8;;
36833;SDS011;48003;52.084;5.224;2024-01-11T11:23:03;37.4;;;18.3;;
36833;SDS011;48003;52.084;5.224;2024-01-11T11:24:42;39.31;;;19.11;;
36833;SDS011;48003;52.084;5.224;2024-01-11T11:27:55;37.0;;;18.7;;
36833;SDS011;48003;52.084;5.224;2024-01-11T11:29:31;37.31;;;18.0;;
36833;SDS011;48003;52.084;5.224;2024-01-11T11:31:07;39.71;;;19.11;;
36833;SDS011;48003;52.084;5.224;2024-01-11T11:34:31;36.81;;;18.0;;
36833;SDS011;48003;52.084;5.224;2024-01-11T11:36:16;39.6;;;18.11;;
36833;SDS011;48003;52.084;5.224;2024-01-11T11:37:53;35.1;;;18.2;;
36833;SDS011;48003;52.084;5.224;2024-01-11T11:39:32;34.21;;;18.3;;
36833;SDS011;48003;52.084;5.224;2024-01-11T11:42:44;35.4;;;18.0;;
36833;SDS011;48003;52.084;5.224;2024-01-11T11:44:21;34.1;;;17.8;;
36833;SDS011;48003;52.084;5.224;2024-01-11T11:45:57;32.0;;;17.2;;
36833;SDS011;48003;52.084;5.224;2024-01-11T11:49:11;36.81;;;18.2;;
36833;SDS011;48003;52.084;5.224;2024-01-11T11:50:47;34.9;;;18.0;;
36833;SDS011;48003;52.084;5.224;2024-01-11T11:52:24;36.0;;;18.8;;
36833;SDS011;48003;52.084;5.224;2024-01-11T11:54:00;35.1;;;18.3;;
36833;SDS011;48003;52.084;5.224;2024-01-11T11:57:16;35.31;;;17.7;;
36833;SDS011;48003;52.084;5.224;2024-01-11T11:58:53;34.1;;;17.8;;
36833;SDS011;48003;52.084;5.224;2024-01-11T12:00:29;40.31;;;19.61;;
36833;SDS011;48003;52.084;5.224;2024-01-11T12:03:52;35.1;;;18.2;;
36833;SDS011;48003;52.084;5.224;2024-01-11T12:05:28;33.5;;;17.91;;
36833;SDS011;48003;52.084;5.224;2024-01-11T12:07:04;34.5;;;17.41;;
36833;SDS011;48003;52.084;5.224;2024-01-11T12:08:41;34.21;;;17.91;;
36833;SDS011;48003;52.084;5.224;2024-01-11T12:11:57;33.1;;;17.91;;
36833;SDS011;48003;52.084;5.224;2024-01-11T12:13:33;36.21;;;18.2;;
36833;SDS011;48003;52.084;5.224;2024-01-11T12:15:09;34.31;;;18.11;;
36833;SDS011;48003;52.084;5.224;2024-01-11T12:18:21;35.21;;;17.91;;
36833;SDS011;48003;52.084;5.224;2024-01-11T12:19:57;34.31;;;17.0;;
36833;SDS011;48003;52.084;5.224;2024-01-11T12:21:36;35.21;;;17.5;;
36833;SDS011;48003;52.084;5.224;2024-01-11T12:24:48;34.1;;;16.9;;
36833;SDS011;48003;52.084;5.224;2024-01-11T12:26:24;31.0;;;16.61;;
36833;SDS011;48003;52.084;5.224;2024-01-11T12:28:02;31.7;;;16.0;;
36833;SDS011;48003;52.084;5.224;2024-01-11T12:29:38;31.9;;;16.9;;
36833;SDS011;48003;52.084;5.224;2024-01-11T12:32:52;27.9;;;15.7;;
36833;SDS011;48003;52.084;5.224;2024-01-11T12:34:29;30.8;;;15.6;;
36833;SDS011;48003;52.084;5.224;2024-01-11T12:36:06;28.1;;;16.0;;
36833;SDS011;48003;52.084;5.224;2024-01-11T12:39:28;32.0;;;16.61;;